Aeroporto :
LOGIN :

Iscrizione | Disclaimer

   EN    FR    IT 

 










Sommario :    VFR   VFR Marginale   IFR   IFR Intensivo   IFR Molto Intensivo
Visibilità : 
Base nubi : 
>= 8 km
>= 3000ft
5 / 8 km
1000 / 3000 ft
1500m / 5 km
500 / 1000 ft
800 / 1500m
200 / 500 ft
< 800m
< 200 ft
Simboli :   Temporali  Nebbia  Neve Forte  Precipitazioni Forti  Vento > 20 kt
SIGMETs :   Varie  Temporali  Ghiacco  Turbolenza  Onda orograficha  Ceneri Vulcaniche






- Altitudine del aeroporto : 336 ft
- Codice IATA : GCI


EGJB - Guernsey

ULTIMO METAR :
  • 062150Z 35004KT 8000 2000SE VCFG MIFG NSC 08/08 Q1026

METARs OBSOLETI :
  • 062050Z 31003KT 9999 MIFG NSC 08/08 Q1026
  • 061950Z 32001KT 9999 MIFG NSC 09/09 Q1026
  • 061920Z 33001KT CAVOK 09/09 Q1025

TAF TAF EGJB
Valido dal 06 a 21 ore il 07 a 06 ore UTC


062002Z 0621/0706 33003KT 9999 FEW008
PROB40
TEMPO 0700/0706 2000 BR BKN005
PROB30
TEMPO 0702/0706 0800 FG BKN000
BECMG 0704/0706 08010KT
ATIS : +44 1481 238 957



MetMap, La meteo Aeronautica in un colpo d'occhio ! - Copyright ORBIFLY Dicembre 2007 - Disclaimer

ORBIFLY MET'MAP TEAM :

Programmazione e sviluppo : Alexandra Zaïnal
Concezione : Baudouin d'Aumeries
Aiuto per la programmazione : Marc-Olivier Méhu
Supporto tecnico e logistico : Manuel Goepfert
Aiuto per la traduzione : Arnaldo La Scala

Contatto : metmap@orbifly.com




FONTI E CREDITI :

   NOAA